Time;durP1;ratioP1;P1;durP2;ratioP2;P2;SDS_P1;SDS_P2;PMS_P1;PMS_P2;Temp;Humidity;BMP_temperature;BMP_pressure;BME280_temperature;BME280_humidity;BME280_pressure;Samples;Min_cycle;Max_cycle;Signal;HPM_P1;HPM_P2
2023/03/29 00:02:01;;;;;;;2.30;2.20;;;;;;;5.27;100.00;147376.34;5075216;28;20212;-65
2023/03/29 00:04:28;;;;;;;2.27;2.17;;;;;;;5.46;100.00;147422.94;5075406;28;20236;-68
2023/03/29 00:06:55;;;;;;;2.13;1.90;;;;;;;5.23;100.00;147365.03;5075472;28;20267;-65
2023/03/29 00:09:25;;;;;;;2.23;2.13;;;;;;;5.36;100.00;147397.75;5075297;28;20203;-66
2023/03/29 00:11:52;;;;;;;2.13;2.03;;;;;;;5.36;100.00;147397.75;5075072;28;20256;-65
2023/03/29 00:14:19;;;;;;;2.50;2.40;;;;;;;5.25;100.00;147371.34;5075397;28;20204;-66
2023/03/29 00:16:47;;;;;;;2.50;2.40;;;;;;;5.29;100.00;147380.13;5075240;28;20204;-65
2023/03/29 00:19:14;;;;;;;2.13;2.03;;;;;;;5.24;100.00;147367.56;5075283;28;20651;-66
2023/03/29 00:21:41;;;;;;;2.53;2.43;;;;;;;5.22;100.00;147362.53;5074922;28;20280;-64
2023/03/29 00:24:08;;;;;;;3.07;2.70;;;;;;;5.21;100.00;147360.00;5074881;28;20222;-65
2023/03/29 00:26:37;;;;;;;2.87;2.70;;;;;;;5.09;100.00;145315.63;5075038;28;20695;-65
2023/03/29 00:29:04;;;;;;;2.60;2.50;;;;;;;5.04;100.00;140209.91;5075147;28;20254;-64
2023/03/29 00:31:31;;;;;;;2.57;2.47;;;;;;;4.83;100.00;135958.00;5075015;28;20242;-65
2023/03/29 00:33:58;;;;;;;2.60;2.50;;;;;;;4.90;100.00;123240.22;5074593;28;20201;-65
2023/03/29 00:36:25;;;;;;;2.70;2.60;;;;;;;4.95;100.00;118656.25;5074629;28;20199;-65
2023/03/29 00:38:52;;;;;;;2.73;2.53;;;;;;;4.93;100.00;118981.09;5074910;28;20188;-65
2023/03/29 00:41:20;;;;;;;3.00;2.80;;;;;;;5.02;100.00;114410.91;5074499;28;20272;-65
2023/03/29 00:43:56;;;;;;;2.93;2.83;;;;;;;5.02;100.00;113754.94;5074806;28;20623;-64
2023/03/29 00:46:25;;;;;;;3.13;3.03;;;;;;;4.85;100.00;115360.13;5074431;28;20188;-64
2023/03/29 00:48:54;;;;;;;3.10;2.90;;;;;;;4.96;100.00;121610.59;5074474;28;20177;-65
2023/03/29 00:51:23;;;;;;;3.23;3.13;;;;;;;5.05;100.00;128455.25;5074395;28;20185;-65
2023/03/29 00:53:56;;;;;;;3.23;3.13;;;;;;;4.93;100.00;138357.94;5074207;28;20266;-65
2023/03/29 00:56:30;;;;;;;3.23;3.13;;;;;;;5.01;100.00;133708.06;5074333;28;20216;-65
2023/03/29 00:59:02;;;;;;;3.43;3.03;;;;;;;4.89;100.00;132889.59;5074207;28;20185;-67
2023/03/29 01:01:33;;;;;;;3.23;3.03;;;;;;;4.94;100.00;129809.69;5073997;28;20187;-65
2023/03/29 01:04:06;;;;;;;3.10;2.90;;;;;;;4.90;100.00;123571.09;5074202;28;20268;-64
2023/03/29 01:06:35;;;;;;;3.30;3.20;;;;;;;4.96;100.00;118331.41;5074185;28;20189;-65
2023/03/29 01:09:09;;;;;;;3.43;3.17;;;;;;;4.77;100.00;113707.28;5073291;28;20579;-66
2023/03/29 01:11:39;;;;;;;3.07;2.97;;;;;;;4.60;100.00;106483.22;5073932;28;20263;-65
2023/03/29 01:14:12;;;;;;;3.33;3.23;;;;;;;4.81;100.00;102276.28;5073894;28;20217;-65
2023/03/29 01:16:39;;;;;;;3.83;3.63;;;;;;;4.67;100.00;100621.06;5073855;28;20184;-66
2023/03/29 01:19:10;;;;;;;3.60;3.50;;;;;;;4.79;100.00;99337.53;5074251;28;20359;-64
2023/03/29 01:21:43;;;;;;;3.37;3.27;;;;;;;4.78;100.00;103901.88;5073887;28;20267;-65
2023/03/29 01:24:29;;;;;;;3.47;3.37;;;;;;;4.71;100.00;107155.66;5073752;28;20181;-66
2023/03/29 01:27:04;;;;;;;3.80;3.70;;;;;;;4.71;100.00;107809.13;5073678;28;20271;-64
2023/03/29 01:29:36;;;;;;;3.40;3.30;;;;;;;4.72;100.00;109771.13;5073922;28;20185;-65
2023/03/29 01:32:09;;;;;;;3.43;3.33;;;;;;;4.71;100.00;114349.31;5073858;28;20223;-64
2023/03/29 01:34:43;;;;;;;3.50;3.40;;;;;;;4.52;100.00;116278.19;5073824;28;20300;-65
2023/03/29 01:37:15;;;;;;;3.77;3.67;;;;;;;4.54;100.00;118574.09;5073501;28;20181;-66
2023/03/29 01:39:43;;;;;;;3.40;3.20;;;;;;;4.51;100.00;118611.50;5073535;28;20242;-65
2023/03/29 01:42:17;;;;;;;3.87;3.67;;;;;;;4.54;100.00;128067.19;5073497;28;20246;-64
2023/03/29 01:44:54;;;;;;;3.13;3.03;;;;;;;4.50;100.00;135139.16;5073806;28;20212;-64
2023/03/29 01:47:30;;;;;;;3.90;3.70;;;;;;;4.49;100.00;137712.09;5073352;28;20250;-65
2023/03/29 01:50:07;;;;;;;3.83;3.63;;;;;;;4.39;100.00;143051.25;5073235;28;20222;-65
2023/03/29 01:52:37;;;;;;;3.83;3.63;;;;;;;4.34;100.00;142266.06;5073131;28;20199;-65
2023/03/29 01:55:10;;;;;;;3.63;3.33;;;;;;;4.27;100.00;146740.41;5073402;28;20548;-65
2023/03/29 01:57:41;;;;;;;3.70;3.40;;;;;;;4.40;100.00;147158.72;5073122;28;20216;-64
2023/03/29 02:00:15;;;;;;;3.30;3.20;;;;;;;4.01;100.00;147061.91;5073076;28;20227;-65
2023/03/29 02:02:47;;;;;;;3.57;3.47;;;;;;;4.38;100.00;147153.69;5073366;28;20231;-67
2023/03/29 02:05:16;;;;;;;3.50;3.33;;;;;;;4.44;100.00;147168.78;5073032;28;20319;-64
2023/03/29 02:07:46;;;;;;;3.27;3.07;;;;;;;4.42;100.00;147163.75;5073282;28;20208;-65
2023/03/29 02:10:15;;;;;;;3.13;2.93;;;;;;;4.30;100.00;147134.81;5072723;28;20267;-65
2023/03/29 02:12:42;;;;;;;3.40;3.10;;;;;;;4.38;100.00;147153.69;5072768;28;20223;-66
2023/03/29 02:15:14;;;;;;;3.67;3.37;;;;;;;4.26;100.00;147123.50;5072642;28;20208;-65
2023/03/29 02:17:42;;;;;;;3.37;3.17;;;;;;;4.10;100.00;147085.81;5072906;28;20262;-65
2023/03/29 02:20:17;;;;;;;3.13;3.03;;;;;;;4.26;100.00;147123.50;5072217;28;20231;-65
2023/03/29 02:22:55;;;;;;;3.60;3.40;;;;;;;4.26;100.00;147123.50;5072647;28;20241;-65
2023/03/29 02:25:25;;;;;;;2.90;2.80;;;;;;;4.36;100.00;147148.69;5072522;28;20587;-65
2023/03/29 02:27:53;;;;;;;4.43;4.10;;;;;;;4.29;100.00;147132.28;5072523;28;20220;-65
2023/03/29 02:30:22;;;;;;;4.33;3.33;;;;;;;4.18;100.00;147103.38;5072656;28;20551;-64
2023/03/29 02:32:58;;;;;;;3.10;3.00;;;;;;;4.26;100.00;147123.50;5072453;28;20282;-65
2023/03/29 02:35:33;;;;;;;3.30;3.20;;;;;;;3.97;100.00;147053.13;5072187;28;20246;-65
2023/03/29 02:38:03;;;;;;;3.40;3.10;;;;;;;4.11;100.00;147087.06;5072615;28;20639;-65
2023/03/29 02:40:31;;;;;;;3.27;3.07;;;;;;;4.01;100.00;147063.16;5072576;28;20234;-64
2023/03/29 02:43:00;;;;;;;4.13;3.93;;;;;;;3.78;100.00;147004.09;5072551;28;20607;-65
2023/03/29 02:45:30;;;;;;;3.93;3.70;;;;;;;4.16;100.00;147099.59;5072312;28;20181;-65
2023/03/29 02:47:59;;;;;;;3.60;3.30;;;;;;;4.19;100.00;147105.91;5072414;28;20218;-65
2023/03/29 02:50:33;;;;;;;4.03;3.83;;;;;;;4.19;100.00;147107.19;5072067;28;20234;-65
2023/03/29 02:53:05;;;;;;;3.30;3.10;;;;;;;4.17;100.00;147100.88;5072086;28;20181;-65
2023/03/29 02:55:34;;;;;;;3.80;3.50;;;;;;;4.14;100.00;147094.59;5072255;28;20281;-67
2023/03/29 02:58:06;;;;;;;3.50;3.40;;;;;;;4.17;100.00;147100.88;5072165;28;20632;-65
2023/03/29 03:00:37;;;;;;;3.20;3.10;;;;;;;4.22;100.00;147113.44;5072196;28;20635;-67
2023/03/29 03:03:06;;;;;;;3.60;3.50;;;;;;;4.09;100.00;147083.28;5071980;28;20219;-65
2023/03/29 03:05:34;;;;;;;3.60;3.40;;;;;;;3.97;100.00;147051.84;5071921;28;20219;-65
2023/03/29 03:08:01;;;;;;;4.03;3.83;;;;;;;3.93;100.00;147043.06;5071769;28;20177;-64
2023/03/29 03:10:28;;;;;;;3.87;3.67;;;;;;;3.75;100.00;146996.53;5071813;28;20274;-65
2023/03/29 03:12:55;;;;;;;3.60;3.40;;;;;;;3.72;100.00;146989.00;5071711;28;20231;-64
2023/03/29 03:15:23;;;;;;;3.90;3.70;;;;;;;3.79;100.00;147007.84;5071558;28;20204;-65
2023/03/29 03:17:51;;;;;;;3.57;3.40;;;;;;;3.71;100.00;146987.75;5071811;28;20249;-65
2023/03/29 03:20:21;;;;;;;3.50;3.40;;;;;;;3.76;100.00;147000.31;5071703;28;20184;-65
2023/03/29 03:22:48;;;;;;;3.70;3.50;;;;;;;3.73;100.00;146992.78;5071651;28;20250;-65
2023/03/29 03:25:18;;;;;;;3.27;3.07;;;;;;;3.63;100.00;146967.63;5071555;28;20272;-65
2023/03/29 03:27:45;;;;;;;3.53;3.33;;;;;;;3.64;100.00;146970.16;5071852;28;20211;-69
2023/03/29 03:30:13;;;;;;;3.73;3.57;;;;;;;3.67;100.00;146978.97;5071481;28;20188;-65
2023/03/29 03:32:40;;;;;;;3.40;3.20;;;;;;;3.72;100.00;146990.28;5070836;28;20192;-64
2023/03/29 03:35:10;;;;;;;4.00;3.70;;;;;;;3.74;100.00;146994.00;5071761;28;20235;-65
2023/03/29 03:37:38;;;;;;;4.00;3.53;;;;;;;3.58;100.00;146955.06;5071839;28;20639;-65
2023/03/29 03:40:10;;;;;;;4.60;4.20;;;;;;;3.58;100.00;146955.06;5071454;28;20184;-64
2023/03/29 03:42:38;;;;;;;4.27;4.07;;;;;;;3.52;100.00;146940.00;5071772;28;20215;-65
2023/03/29 03:45:07;;;;;;;3.23;3.13;;;;;;;3.59;100.00;146957.59;5071838;28;20191;-64
2023/03/29 03:47:34;;;;;;;4.53;4.13;;;;;;;3.55;100.00;146947.53;5071413;28;20188;-65
2023/03/29 03:50:01;;;;;;;6.40;3.87;;;;;;;3.33;100.00;146892.25;5071789;28;20261;-65
2023/03/29 03:52:29;;;;;;;4.40;3.93;;;;;;;3.59;100.00;146957.59;5071424;28;20216;-65
2023/03/29 03:54:57;;;;;;;6.73;4.20;;;;;;;3.55;100.00;146947.53;5071243;28;20211;-65
2023/03/29 03:57:24;;;;;;;6.73;4.30;;;;;;;3.48;100.00;146929.97;5071628;28;20639;-66
2023/03/29 03:59:51;;;;;;;4.77;4.37;;;;;;;3.40;100.00;146909.81;5071307;28;20192;-65
2023/03/29 04:02:19;;;;;;;5.17;4.17;;;;;;;3.39;100.00;146907.34;5071544;28;20694;-65
2023/03/29 04:04:46;;;;;;;5.03;4.60;;;;;;;3.24;100.00;146870.88;5071481;28;20189;-65
2023/03/29 04:07:13;;;;;;;5.00;4.80;;;;;;;3.43;100.00;146918.66;5071489;28;20707;-65
2023/03/29 04:09:42;;;;;;;4.67;4.43;;;;;;;3.44;100.00;146919.88;5071179;28;20192;-65
2023/03/29 04:12:10;;;;;;;5.70;4.53;;;;;;;3.55;100.00;146947.53;5070947;28;20584;-66
2023/03/29 04:14:37;;;;;;;4.80;4.40;;;;;;;3.55;100.00;146947.53;5071469;28;20650;-64
2023/03/29 04:17:04;;;;;;;4.93;4.50;;;;;;;3.53;100.00;146943.75;5071464;28;20276;-65
2023/03/29 04:19:31;;;;;;;4.80;4.20;;;;;;;3.50;100.00;146934.97;5071044;28;20188;-65
2023/03/29 04:22:00;;;;;;;5.53;4.43;;;;;;;3.58;100.00;146955.06;5071158;28;20212;-65
2023/03/29 04:24:27;;;;;;;7.37;5.20;;;;;;;3.50;100.00;146934.97;5071133;28;20214;-65
2023/03/29 04:26:56;;;;;;;5.30;4.90;;;;;;;3.37;100.00;146902.28;5071310;28;20219;-65
2023/03/29 04:29:23;;;;;;;5.10;4.90;;;;;;;3.46;100.00;146926.19;5071268;28;20224;-65
2023/03/29 04:31:50;;;;;;;5.40;5.00;;;;;;;3.49;100.00;146932.44;5070789;28;20223;-66
2023/03/29 04:34:17;;;;;;;9.40;6.10;;;;;;;3.51;100.00;146938.75;5071118;28;20294;-66
2023/03/29 04:36:44;;;;;;;6.20;5.70;;;;;;;3.37;100.00;146902.28;5070868;28;20227;-65
2023/03/29 04:39:11;;;;;;;6.57;6.17;;;;;;;3.52;100.00;146940.00;5070782;28;20281;-65
2023/03/29 04:41:38;;;;;;;7.03;6.57;;;;;;;3.62;100.00;146966.38;5071162;28;20196;-64
2023/03/29 04:44:07;;;;;;;9.83;6.37;;;;;;;3.73;100.00;146992.78;5073015;28;20192;-65
2023/03/29 04:46:34;;;;;;;8.93;7.10;;;;;;;3.95;100.00;147046.81;5074665;28;20270;-65
2023/03/29 04:49:01;;;;;;;6.93;6.30;;;;;;;3.99;100.00;147058.13;5074447;28;20191;-65
2023/03/29 04:51:28;;;;;;;8.13;7.07;;;;;;;4.56;100.00;147200.22;5074787;28;20559;-64
2023/03/29 04:53:55;;;;;;;7.10;6.43;;;;;;;5.04;100.00;147319.75;5074602;28;20216;-65
2023/03/29 04:56:23;;;;;;;6.77;6.20;;;;;;;5.06;100.00;147323.50;5074589;28;20311;-65
2023/03/29 04:58:50;;;;;;;8.97;6.40;;;;;;;4.98;100.00;147304.63;5074497;28;20208;-65
2023/03/29 05:01:18;;;;;;;6.43;5.90;;;;;;;5.32;100.00;147388.94;5074545;28;20189;-66
2023/03/29 05:03:45;;;;;;;8.30;4.93;;;;;;;5.54;100.00;147443.06;5074260;28;20283;-68
2023/03/29 05:06:12;;;;;;;5.53;4.70;;;;;;;6.03;100.00;147565.22;5074465;28;20188;-64
2023/03/29 05:08:40;;;;;;;5.20;4.90;;;;;;;5.96;100.00;147547.59;5074014;28;20271;-66
2023/03/29 05:11:09;;;;;;;5.03;4.80;;;;;;;6.13;100.00;147589.16;5073999;28;20232;-66
2023/03/29 05:13:37;;;;;;;5.30;4.80;;;;;;;6.09;100.00;147580.34;5073951;28;20189;-65
2023/03/29 05:16:05;;;;;;;5.50;4.93;;;;;;;6.37;100.00;147649.59;5074144;28;20727;-66
2023/03/29 05:18:34;;;;;;;4.90;4.57;;;;;;;6.62;100.00;147712.59;5074216;28;20200;-65
2023/03/29 05:21:01;;;;;;;4.83;4.60;;;;;;;6.77;100.00;147750.44;5073773;28;20590;-66
2023/03/29 05:23:29;;;;;;;4.77;4.47;;;;;;;6.81;100.00;147760.50;5073918;28;20276;-66
2023/03/29 05:25:56;;;;;;;5.90;4.30;;;;;;;7.26;100.00;147871.41;5073888;28;20189;-66
2023/03/29 05:28:23;;;;;;;6.37;5.00;;;;;;;7.91;100.00;148032.81;5072518;28;20184;-65
2023/03/29 05:30:59;;;;;;;5.50;5.00;;;;;;;8.17;100.00;148098.41;5073331;28;20276;-65
2023/03/29 05:33:27;;;;;;;4.30;4.10;;;;;;;8.55;100.00;148193.09;5073210;28;20197;-66
2023/03/29 05:36:00;;;;;;;4.90;3.37;;;;;;;8.32;100.00;148135.06;5073368;28;20292;-66
2023/03/29 05:38:28;;;;;;;4.20;3.77;;;;;;;8.17;100.00;148098.41;5073587;28;20645;-65
2023/03/29 05:40:56;;;;;;;4.30;4.10;;;;;;;8.16;100.00;148097.13;5073080;28;20195;-65
2023/03/29 05:43:23;;;;;;;5.53;3.23;;;;;;;8.22;100.00;148111.03;5073005;28;20184;-67
2023/03/29 05:45:52;;;;;;;5.67;3.20;;;;;;;7.85;100.00;148017.69;5073228;28;20651;-68
2023/03/29 05:48:21;;;;;;;2.90;2.80;;;;;;;7.80;100.00;148006.34;5073270;28;20204;-68
2023/03/29 05:50:51;;;;;;;3.77;3.37;;;;;;;7.17;100.00;147848.75;5073705;28;20219;-68
2023/03/29 05:53:20;;;;;;;3.93;3.63;;;;;;;7.15;100.00;147844.94;5073038;28;20292;-68
2023/03/29 05:55:48;;;;;;;3.80;3.60;;;;;;;6.88;100.00;147776.88;5072224;28;20208;-67
2023/03/29 05:58:16;;;;;;;4.87;4.57;;;;;;;7.40;100.00;147905.44;5073146;28;20195;-68
2023/03/29 06:00:44;;;;;;;3.60;3.43;;;;;;;8.32;100.00;148136.28;5072742;28;20240;-68
2023/03/29 06:03:18;;;;;;;3.60;3.30;;;;;;;8.19;100.00;148103.44;5072944;28;20287;-68
2023/03/29 06:05:47;;;;;;;3.27;2.97;;;;;;;8.32;100.00;148136.28;5072856;28;20278;-68
2023/03/29 06:08:14;;;;;;;7.63;3.77;;;;;;;8.09;100.00;148078.22;5073131;28;20212;-68
2023/03/29 06:10:43;;;;;;;8.90;3.33;;;;;;;8.12;100.00;148085.78;5072750;28;20681;-68
2023/03/29 06:13:10;;;;;;;2.80;2.70;;;;;;;7.71;100.00;147983.63;5072493;28;20196;-67
2023/03/29 06:15:37;;;;;;;3.13;2.93;;;;;;;7.50;100.00;147931.94;5072184;28;20254;-68
2023/03/29 06:18:04;;;;;;;5.07;2.90;;;;;;;7.53;100.00;147939.50;5072427;28;20601;-68
2023/03/29 06:20:32;;;;;;;3.37;3.20;;;;;;;7.15;100.00;147843.69;5072282;28;20192;-68
2023/03/29 06:22:59;;;;;;;3.53;3.23;;;;;;;7.48;100.00;147925.59;5072349;28;20261;-67
2023/03/29 06:25:26;;;;;;;4.30;3.50;;;;;;;7.46;100.00;147920.59;5072462;28;20185;-68
2023/03/29 06:27:55;;;;;;;3.43;3.33;;;;;;;7.32;100.00;147886.53;5072587;28;20201;-69
2023/03/29 06:30:22;;;;;;;5.03;3.23;;;;;;;7.35;100.00;147894.09;5072216;28;20180;-68
2023/03/29 06:32:49;;;;;;;4.27;3.20;;;;;;;7.66;100.00;147971.00;5071930;28;20195;-67
2023/03/29 06:35:16;;;;;;;3.17;3.07;;;;;;;8.14;100.00;148092.13;5072224;28;20240;-69
2023/03/29 06:37:49;;;;;;;5.70;4.30;;;;;;;8.63;100.00;148213.28;5071982;28;20181;-68
2023/03/29 06:40:17;;;;;;;4.57;3.33;;;;;;;8.85;100.00;148267.56;5071819;28;20184;-69
2023/03/29 06:42:45;;;;;;;3.30;3.00;;;;;;;9.07;100.00;148323.09;5072230;28;20661;-68
2023/03/29 06:45:14;;;;;;;4.20;2.80;;;;;;;9.09;100.00;148329.41;5072174;28;20575;-68
2023/03/29 06:47:41;;;;;;;3.20;3.00;;;;;;;8.81;100.00;148257.44;5071665;28;20227;-68
2023/03/29 06:50:10;;;;;;;3.20;3.10;;;;;;;9.17;100.00;148349.59;5071638;28;20614;-69
2023/03/29 06:52:37;;;;;;;3.50;3.30;;;;;;;9.89;100.00;148527.66;5071495;28;20216;-68
2023/03/29 06:55:07;;;;;;;3.53;2.87;;;;;;;10.54;100.00;148690.75;5071615;28;20247;-69
2023/03/29 06:57:34;;;;;;;3.80;3.60;;;;;;;10.61;100.00;148708.44;5071889;28;20697;-68
2023/03/29 07:00:12;;;;;;;6.37;3.37;;;;;;;10.28;100.00;148626.28;5071961;28;20612;-68
2023/03/29 07:02:44;;;;;;;3.60;3.10;;;;;;;10.17;100.00;148598.50;5071758;28;20627;-67
2023/03/29 07:05:12;;;;;;;8.53;3.23;;;;;;;10.42;100.00;148661.69;5078919;28;20325;-68
2023/03/29 07:07:52;;;;;;;7.70;3.23;;;;;;;10.85;100.00;148769.13;5090658;28;20283;-69
2023/03/29 07:10:22;;;;;;;4.77;3.43;;;;;;;11.13;98.89;148838.66;5091989;28;20269;-67
2023/03/29 07:12:50;;;;;;;7.40;3.33;;;;;;;11.24;98.96;148865.25;5091522;28;20188;-68
2023/03/29 07:15:17;;;;;;;3.10;2.80;;;;;;;10.99;98.26;148804.50;5091813;28;20311;-67
2023/03/29 07:17:47;;;;;;;4.10;3.30;;;;;;;11.00;97.80;148805.78;5091933;28;20302;-67
2023/03/29 07:20:15;;;;;;;2.97;2.87;;;;;;;10.81;97.65;148759.03;5091662;28;20207;-67
2023/03/29 07:22:43;;;;;;;3.77;3.10;;;;;;;11.30;91.11;148881.66;5091984;28;20566;-66
2023/03/29 07:25:11;;;;;;;4.00;2.90;;;;;;;11.18;92.72;148851.31;5091256;28;20206;-67
2023/03/29 07:27:39;;;;;;;4.00;3.60;;;;;;;10.37;100.00;148647.75;5090351;28;20201;-67
2023/03/29 07:30:10;;;;;;;4.10;3.90;;;;;;;9.71;100.00;148482.22;5091092;28;20638;-65
2023/03/29 07:32:38;;;;;;;3.60;3.40;;;;;;;9.70;100.00;148479.69;5091791;28;20275;-65
2023/03/29 07:35:08;;;;;;;2.80;2.70;;;;;;;9.19;100.00;148353.41;5091332;28;20278;-66
2023/03/29 07:37:36;;;;;;;7.80;3.57;;;;;;;9.22;100.00;148360.97;5091054;28;20226;-67
2023/03/29 07:40:08;;;;;;;3.03;2.93;;;;;;;9.32;100.00;148384.97;5091153;28;20272;-67
2023/03/29 07:42:36;;;;;;;3.90;3.67;;;;;;;9.67;100.00;148473.38;5091097;28;20271;-68
2023/03/29 07:45:03;;;;;;;3.73;3.63;;;;;;;9.87;100.00;148522.63;5091365;28;20184;-67
2023/03/29 07:47:34;;;;;;;3.60;3.40;;;;;;;9.58;100.00;148451.91;5091221;28;20184;-67
2023/03/29 07:50:12;;;;;;;3.50;3.23;;;;;;;9.54;100.00;148440.53;5091208;28;20611;-69
2023/03/29 07:52:39;;;;;;;5.03;3.60;;;;;;;9.48;100.00;148425.38;5091132;28;20234;-67
2023/03/29 07:55:07;;;;;;;6.27;3.57;;;;;;;9.26;100.00;148371.06;5091312;28;20222;-67
2023/03/29 07:57:34;;;;;;;3.40;3.10;;;;;;;8.92;100.00;148285.22;5091389;28;20210;-67
2023/03/29 08:00:10;;;;;;;3.30;3.10;;;;;;;9.05;100.00;148318.03;5091504;28;20631;-67
2023/03/29 08:02:38;;;;;;;3.77;3.10;;;;;;;8.96;100.00;148295.31;5091393;28;20188;-67
2023/03/29 08:05:05;;;;;;;3.23;3.03;;;;;;;8.93;100.00;148287.75;5091377;28;20624;-67
2023/03/29 08:07:34;;;;;;;3.10;3.00;;;;;;;8.84;100.00;148265.00;5091579;28;20241;-66
2023/03/29 08:10:02;;;;;;;2.90;2.80;;;;;;;8.75;100.00;148242.28;5091074;28;20192;-67
2023/03/29 08:12:29;;;;;;;3.17;2.80;;;;;;;8.76;100.00;148244.81;5090994;28;20227;-68
2023/03/29 08:14:56;;;;;;;3.20;3.00;;;;;;;9.09;100.00;148328.13;5090807;28;20196;-69
2023/03/29 08:17:23;;;;;;;3.20;3.00;;;;;;;9.46;100.00;148420.34;5091019;28;20259;-69
2023/03/29 08:19:50;;;;;;;3.07;2.90;;;;;;;9.71;94.12;148482.22;5094897;28;20275;-67
2023/03/29 08:22:17;;;;;;;3.20;3.10;;;;;;;9.95;93.09;148542.84;5095329;28;20187;-68
2023/03/29 08:24:45;;;;;;;5.83;3.57;;;;;;;10.32;92.18;148635.13;5095166;28;20215;-66
2023/03/29 08:27:12;;;;;;;3.03;2.83;;;;;;;10.51;84.22;148684.44;5095035;28;20191;-67
2023/03/29 08:29:39;;;;;;;3.47;3.27;;;;;;;10.16;88.57;148594.69;5094883;28;20267;-66
2023/03/29 08:32:07;;;;;;;3.23;3.13;;;;;;;10.06;84.97;148571.88;5095261;28;20188;-67
2023/03/29 08:34:35;;;;;;;3.30;3.10;;;;;;;9.70;90.76;148479.69;5094697;28;20241;-66
2023/03/29 08:37:03;;;;;;;3.17;3.00;;;;;;;9.79;90.78;148502.44;5094745;28;20247;-66
2023/03/29 08:39:31;;;;;;;3.27;3.17;;;;;;;9.76;87.50;148496.09;5093499;28;20180;-66
2023/03/29 08:42:12;;;;;;;3.83;3.63;;;;;;;9.89;81.71;148527.66;5095280;28;20188;-66
2023/03/29 08:44:56;;;;;;;3.80;3.60;;;;;;;9.52;92.88;148436.72;5094622;28;20280;-66
2023/03/29 08:47:35;;;;;;;3.80;3.50;;;;;;;9.49;97.75;148427.91;5083907;28;20296;-66
2023/03/29 08:50:02;;;;;;;3.70;3.40;;;;;;;9.87;97.96;148523.91;5074535;28;20212;-66
2023/03/29 08:52:36;;;;;;;3.50;3.40;;;;;;;9.93;97.74;148537.81;5073878;28;20220;-67
2023/03/29 08:55:08;;;;;;;2.93;2.83;;;;;;;10.13;92.56;148588.34;5074257;28;20621;-67
2023/03/29 08:57:46;;;;;;;4.03;3.83;;;;;;;10.12;93.61;148585.81;5073812;28;20295;-66
2023/03/29 09:00:21;;;;;;;3.40;3.10;;;;;;;10.41;90.74;148659.16;5074352;28;20592;-66
2023/03/29 09:02:52;;;;;;;5.17;4.50;;;;;;;10.44;87.09;148665.44;5074299;28;20180;-68
2023/03/29 09:05:26;;;;;;;4.03;3.83;;;;;;;10.31;89.00;148633.84;5074093;28;20275;-69
2023/03/29 09:07:55;;;;;;;3.73;3.53;;;;;;;10.00;93.02;148556.75;5073895;28;20184;-68
2023/03/29 09:10:32;;;;;;;3.90;3.70;;;;;;;9.99;91.59;148552.94;5073657;28;20184;-67
2023/03/29 09:13:15;;;;;;;3.70;3.40;;;;;;;10.07;92.89;148573.16;5074062;28;20286;-67
2023/03/29 09:15:52;;;;;;;4.67;4.37;;;;;;;9.86;89.57;148520.09;5073863;28;20254;-65
2023/03/29 09:18:29;;;;;;;6.87;3.57;;;;;;;9.91;90.49;148532.75;5074308;28;20662;-66
2023/03/29 09:21:01;;;;;;;3.50;3.40;;;;;;;10.06;89.53;148570.63;5074032;28;20302;-67
2023/03/29 09:23:48;;;;;;;3.63;3.33;;;;;;;10.00;94.31;148555.50;5073406;28;20358;-67
2023/03/29 09:26:24;;;;;;;7.13;4.77;;;;;;;9.62;100.00;148462.03;5073571;28;20207;-68
2023/03/29 09:29:04;;;;;;;3.63;3.43;;;;;;;9.79;100.00;148502.44;5073334;28;20216;-69
2023/03/29 09:31:35;;;;;;;3.13;2.93;;;;;;;9.69;100.00;148477.16;5072307;28;20188;-66
2023/03/29 09:34:06;;;;;;;4.53;4.20;;;;;;;9.81;100.00;148508.72;5073499;28;20662;-67
2023/03/29 09:36:42;;;;;;;5.13;3.60;;;;;;;10.39;100.00;148654.13;5073181;28;20217;-68
2023/03/29 09:39:13;;;;;;;4.13;3.73;;;;;;;10.92;96.18;148786.81;5088166;28;20274;-69
2023/03/29 09:41:43;;;;;;;3.37;3.17;;;;;;;11.50;91.68;148929.75;5073807;28;20188;-68
2023/03/29 09:44:17;;;;;;;6.90;3.33;;;;;;;12.26;86.03;149122.09;5073587;28;20187;-68
2023/03/29 09:46:47;;;;;;;3.43;3.30;;;;;;;12.97;83.64;149298.09;5082430;28;20254;-69
2023/03/29 09:49:18;;;;;;;3.67;3.30;;;;;;;13.47;76.09;149424.81;5074972;28;20286;-68
2023/03/29 09:51:50;;;;;;;3.50;3.20;;;;;;;14.16;69.21;149597.19;5086668;28;20306;-68
2023/03/29 09:54:17;;;;;;;3.37;3.17;;;;;;;14.66;64.64;149721.47;5081632;28;20257;-68
2023/03/29 09:56:44;;;;;;;3.13;2.93;;;;;;;14.95;61.96;149795.00;5093266;28;20646;-67
2023/03/29 09:59:13;;;;;;;3.50;3.30;;;;;;;14.96;63.40;149798.84;5093087;28;20195;-68
2023/03/29 10:01:47;;;;;;;3.60;3.50;;;;;;;15.15;58.35;149844.50;5092614;28;20287;-67
2023/03/29 10:04:15;;;;;;;3.40;3.30;;;;;;;15.29;55.26;149880.00;5073035;28;20650;-68
2023/03/29 10:06:46;;;;;;;3.57;3.37;;;;;;;16.02;55.05;150062.81;5072835;28;20181;-67
2023/03/29 10:09:20;;;;;;;3.03;2.90;;;;;;;15.41;53.08;149910.44;5072410;28;20224;-67
2023/03/29 10:11:49;;;;;;;1.97;1.97;;;;;;;15.01;49.39;149811.53;5072455;28;20729;-67
2023/03/29 10:14:21;;;;;;;2.30;2.20;;;;;;;14.85;49.14;149770.91;5072397;28;20310;-66
2023/03/29 10:16:55;;;;;;;2.43;2.33;;;;;;;14.80;49.61;149758.25;5072626;28;20216;-68
2023/03/29 10:19:26;;;;;;;2.77;2.67;;;;;;;14.56;50.41;149697.34;5072688;28;20245;-67
2023/03/29 10:21:59;;;;;;;2.70;2.60;;;;;;;14.39;51.38;149654.25;5072265;28;20195;-66
2023/03/29 10:24:27;;;;;;;2.83;2.73;;;;;;;13.51;52.42;149434.94;5072739;28;20192;-68
2023/03/29 10:26:57;;;;;;;3.33;3.10;;;;;;;13.11;54.10;149334.84;5072219;28;20220;-67
2023/03/29 10:29:27;;;;;;;2.70;2.60;;;;;;;12.81;57.91;149258.88;5072124;28;20224;-67
2023/03/29 10:31:54;;;;;;;3.30;3.00;;;;;;;12.11;58.82;149082.88;5072086;28;20191;-68
2023/03/29 10:34:26;;;;;;;3.37;3.27;;;;;;;11.97;67.48;149047.41;5072168;28;20260;-67
2023/03/29 10:36:58;;;;;;;3.00;2.90;;;;;;;11.78;76.90;149000.63;5071951;28;20336;-68
2023/03/29 10:39:28;;;;;;;4.73;2.77;;;;;;;10.82;79.64;148761.53;5072413;28;20189;-68
2023/03/29 10:41:55;;;;;;;3.87;3.57;;;;;;;10.67;81.96;148722.34;5071686;28;20220;-67
2023/03/29 10:44:30;;;;;;;3.47;3.27;;;;;;;10.87;87.74;148772.91;5072028;28;20610;-67
2023/03/29 10:47:08;;;;;;;2.90;2.80;;;;;;;11.53;80.69;148937.34;5071766;28;20271;-66
2023/03/29 10:49:41;;;;;;;3.20;2.93;;;;;;;11.89;71.18;149028.44;5071609;28;20290;-67
2023/03/29 10:52:08;;;;;;;3.53;2.30;;;;;;;11.22;67.61;148860.16;5071934;28;20184;-66
2023/03/29 10:54:36;;;;;;;2.30;2.20;;;;;;;10.89;73.98;148779.25;5071256;28;20196;-67
2023/03/29 10:57:07;;;;;;;4.70;3.00;;;;;;;12.25;68.20;149119.59;5071883;28;20638;-69
2023/03/29 10:59:43;;;;;;;2.77;2.57;;;;;;;13.02;62.44;149310.78;5071841;28;20189;-66
2023/03/29 11:02:33;;;;;;;2.80;2.30;;;;;;;12.09;59.14;149079.09;5071954;28;20252;-67
2023/03/29 11:05:17;;;;;;;2.30;2.20;;;;;;;11.58;61.63;148950.00;5071648;28;20224;-68
2023/03/29 11:07:56;;;;;;;3.63;2.33;;;;;;;10.52;64.30;148686.94;5071541;28;20188;-66
2023/03/29 11:10:35;;;;;;;4.70;2.03;;;;;;;9.99;66.27;148552.94;5071433;28;20230;-68
2023/03/29 11:13:10;;;;;;;3.50;1.80;;;;;;;9.49;71.47;148429.16;5071539;28;20216;-67
2023/03/29 11:15:51;;;;;;;2.53;2.00;;;;;;;8.85;77.88;148267.56;5091510;28;20518;-67
2023/03/29 11:18:51;;;;;;;3.90;1.80;;;;;;;8.82;82.39;148261.25;5091838;28;20582;-66
2023/03/29 11:21:28;;;;;;;1.53;1.50;;;;;;;8.38;84.74;148151.44;5091747;28;20183;-67
2023/03/29 11:24:09;;;;;;;7.93;1.70;;;;;;;8.14;89.33;148092.13;5091868;28;20695;-66
2023/03/29 11:26:48;;;;;;;3.73;1.63;;;;;;;8.44;90.19;148165.34;5091546;28;20190;-67
2023/03/29 11:29:21;;;;;;;1.67;1.50;;;;;;;8.86;85.63;148270.09;5091603;28;20223;-66
2023/03/29 11:32:00;;;;;;;5.07;1.40;;;;;;;9.11;63.06;148333.19;5091407;28;20216;-67
2023/03/29 11:34:32;;;;;;;2.57;1.47;;;;;;;9.39;57.34;148402.63;5091740;28;20575;-67
2023/03/29 11:37:06;;;;;;;2.17;0.97;;;;;;;9.30;55.39;148379.91;5091286;28;20294;-66
2023/03/29 11:39:43;;;;;;;1.40;1.30;;;;;;;9.24;55.85;148366.03;5091328;28;20603;-66
2023/03/29 11:42:20;;;;;;;6.27;1.60;;;;;;;9.56;57.51;148446.84;5092333;28;20226;-66